Capitol Logistics 436


KSLC
Salt Lake City International Airport
Salt Lake City, Utah, US
KSMF
Sacramento International Airport
Sacramento, California, US

Activity Log

Date Flight Route Aircraft Duration
11/12/2019 CPX436 N0447F360 DEZRT1 BAM J32 LLC/N0412F240 ANAHO SLMMR3 B738 1h 36m

Route Details

Aircraft Information
Primary: Boeing 757-200SF
Backup: Boeing 737-800BCF
Route Data
Distance: 462nm
Sched. Duration: 1h 44m
Avg. Duration: 1h 36m (-9m)
Times Flown: 1
Recm'd Route: DEZRT1 BAM LLC ANAHO SLMMR3
Planned Altitude: 36,000ft
Origin Wx: KSLC 272254Z 33007KT 10SM CLR 11/M05 A3041 RMK AO2 SLP296 T01061050 $
Dest. Wx: KSMF 272253Z 02004KT 10SM FEW250 24/06 A3017 RMK AO2 SLP215 T02440056
Notes:

Financial History
Total Freight: 40,128lbs
Average Load: 40,128lbs/flt
Fuel Used: 8,632lbs
Avg. Fuel Used: 8,632lbs/flt
Fuel Expense: $7,424
Avg. Fuel Expense: $7,424
Avg. Fuel Cost: $0.86/lbs
Total Gross Income: $56,179
Pilot Pay: $229
Total Expenses: $6,119
Total Revenue: $42,270
Average Revenue: $56,179.20